sensor_id;sensor_type;location;lat;lon;timestamp;pressure;altitude;pressure_sealevel;temperature;humidity
59859;BME280;45734;53.648;9.566;2022-07-29T00:02:30;102071.03;;;10.00;100.00
59859;BME280;45734;53.648;9.566;2022-07-29T00:07:32;102062.34;;;9.98;100.00
59859;BME280;45734;53.648;9.566;2022-07-29T00:12:32;102059.47;;;9.90;100.00
59859;BME280;45734;53.648;9.566;2022-07-29T00:17:32;102057.56;;;9.81;100.00
59859;BME280;45734;53.648;9.566;2022-07-29T00:22:37;102051.88;;;9.74;100.00
59859;BME280;45734;53.648;9.566;2022-07-29T00:27:38;102048.34;;;9.73;100.00
59859;BME280;45734;53.648;9.566;2022-07-29T00:32:39;102052.84;;;9.73;100.00
59859;BME280;45734;53.648;9.566;2022-07-29T00:37:39;102042.69;;;9.67;100.00
59859;BME280;45734;53.648;9.566;2022-07-29T00:42:47;102039.69;;;9.60;100.00
59859;BME280;45734;53.648;9.566;2022-07-29T00:47:48;102045.63;;;9.52;100.00
59859;BME280;45734;53.648;9.566;2022-07-29T00:52:49;102043.06;;;9.51;100.00
59859;BME280;45734;53.648;9.566;2022-07-29T00:57:50;102034.00;;;9.53;100.00
59859;BME280;45734;53.648;9.566;2022-07-29T01:02:51;102032.66;;;9.59;100.00
59859;BME280;45734;53.648;9.566;2022-07-29T01:07:53;102039.81;;;9.59;100.00
59859;BME280;45734;53.648;9.566;2022-07-29T01:12:57;102036.56;;;9.55;100.00
59859;BME280;45734;53.648;9.566;2022-07-29T01:18:11;102025.06;;;9.55;100.00
59859;BME280;45734;53.648;9.566;2022-07-29T01:33:48;102012.97;;;9.50;100.00
59859;BME280;45734;53.648;9.566;2022-07-29T01:38:58;102005.59;;;9.54;100.00
59859;BME280;45734;53.648;9.566;2022-07-29T01:44:02;101986.09;;;9.65;100.00
59859;BME280;45734;53.648;9.566;2022-07-29T01:49:16;101993.56;;;9.82;100.00
59859;BME280;45734;53.648;9.566;2022-07-29T01:54:26;101992.09;;;9.89;100.00
59859;BME280;45734;53.648;9.566;2022-07-29T01:59:30;101990.28;;;9.90;100.00
59859;BME280;45734;53.648;9.566;2022-07-29T02:04:33;101977.22;;;9.87;100.00
59859;BME280;45734;53.648;9.566;2022-07-29T02:09:36;101974.56;;;9.87;100.00
59859;BME280;45734;53.648;9.566;2022-07-29T02:14:44;101973.97;;;9.83;100.00
59859;BME280;45734;53.648;9.566;2022-07-29T02:19:47;101963.97;;;9.96;100.00
59859;BME280;45734;53.648;9.566;2022-07-29T02:24:48;101963.78;;;10.09;100.00
59859;BME280;45734;53.648;9.566;2022-07-29T02:29:51;101959.34;;;10.10;100.00
59859;BME280;45734;53.648;9.566;2022-07-29T02:34:52;101951.34;;;10.10;100.00
59859;BME280;45734;53.648;9.566;2022-07-29T02:39:53;101957.63;;;10.09;100.00
59859;BME280;45734;53.648;9.566;2022-07-29T02:44:55;101949.22;;;10.04;100.00
59859;BME280;45734;53.648;9.566;2022-07-29T02:50:15;101951.16;;;10.02;100.00
59859;BME280;45734;53.648;9.566;2022-07-29T02:55:26;101951.97;;;10.02;100.00
59859;BME280;45734;53.648;9.566;2022-07-29T03:00:30;101948.34;;;10.03;100.00
59859;BME280;45734;53.648;9.566;2022-07-29T03:05:31;101944.00;;;10.02;100.00
59859;BME280;45734;53.648;9.566;2022-07-29T03:10:33;101940.25;;;10.05;100.00
59859;BME280;45734;53.648;9.566;2022-07-29T03:15:34;101945.31;;;10.08;100.00
59859;BME280;45734;53.648;9.566;2022-07-29T03:20:37;101940.44;;;10.13;100.00
59859;BME280;45734;53.648;9.566;2022-07-29T03:25:37;101948.50;;;10.23;100.00
59859;BME280;45734;53.648;9.566;2022-07-29T03:30:38;101938.19;;;10.29;100.00
59859;BME280;45734;53.648;9.566;2022-07-29T03:35:38;101937.94;;;10.32;100.00
59859;BME280;45734;53.648;9.566;2022-07-29T03:40:49;101939.56;;;10.45;100.00
59859;BME280;45734;53.648;9.566;2022-07-29T03:45:53;101941.41;;;10.75;100.00
59859;BME280;45734;53.648;9.566;2022-07-29T03:50:55;101935.53;;;11.12;100.00
59859;BME280;45734;53.648;9.566;2022-07-29T03:55:58;101937.13;;;11.33;100.00
59859;BME280;45734;53.648;9.566;2022-07-29T04:00:59;101932.03;;;11.21;100.00
59859;BME280;45734;53.648;9.566;2022-07-29T04:06:00;101926.94;;;11.08;100.00
59859;BME280;45734;53.648;9.566;2022-07-29T04:11:02;101929.56;;;10.98;100.00
59859;BME280;45734;53.648;9.566;2022-07-29T04:16:03;101935.91;;;10.97;100.00
59859;BME280;45734;53.648;9.566;2022-07-29T04:21:03;101939.97;;;11.01;100.00
59859;BME280;45734;53.648;9.566;2022-07-29T04:26:04;101939.56;;;11.06;100.00
59859;BME280;45734;53.648;9.566;2022-07-29T04:31:04;101941.28;;;11.17;100.00
59859;BME280;45734;53.648;9.566;2022-07-29T04:36:04;101946.66;;;11.26;100.00
59859;BME280;45734;53.648;9.566;2022-07-29T04:41:05;101940.94;;;11.41;100.00
59859;BME280;45734;53.648;9.566;2022-07-29T04:46:06;101946.28;;;11.60;100.00
59859;BME280;45734;53.648;9.566;2022-07-29T04:51:07;101949.53;;;11.73;100.00
59859;BME280;45734;53.648;9.566;2022-07-29T04:56:07;101945.50;;;11.89;100.00
59859;BME280;45734;53.648;9.566;2022-07-29T05:01:08;101941.25;;;12.35;100.00
59859;BME280;45734;53.648;9.566;2022-07-29T05:06:08;101944.69;;;13.75;100.00
59859;BME280;45734;53.648;9.566;2022-07-29T05:11:08;101940.53;;;14.94;100.00
59859;BME280;45734;53.648;9.566;2022-07-29T05:16:09;101954.50;;;15.49;100.00
59859;BME280;45734;53.648;9.566;2022-07-29T05:21:09;101948.16;;;15.58;100.00
59859;BME280;45734;53.648;9.566;2022-07-29T05:26:09;101952.94;;;16.21;100.00
59859;BME280;45734;53.648;9.566;2022-07-29T05:31:10;101961.50;;;17.45;100.00
59859;BME280;45734;53.648;9.566;2022-07-29T05:36:10;101957.25;;;18.42;98.75
59859;BME280;45734;53.648;9.566;2022-07-29T05:41:11;101948.72;;;17.70;97.16
59859;BME280;45734;53.648;9.566;2022-07-29T05:46:12;101954.06;;;16.60;100.00
59859;BME280;45734;53.648;9.566;2022-07-29T05:51:13;101951.59;;;15.93;100.00
59859;BME280;45734;53.648;9.566;2022-07-29T05:56:14;101956.72;;;15.53;100.00
59859;BME280;45734;53.648;9.566;2022-07-29T06:01:14;101964.91;;;15.52;100.00
59859;BME280;45734;53.648;9.566;2022-07-29T06:06:14;101966.84;;;15.84;100.00
59859;BME280;45734;53.648;9.566;2022-07-29T06:11:15;101958.31;;;15.89;100.00
59859;BME280;45734;53.648;9.566;2022-07-29T06:16:15;101957.88;;;15.67;100.00
59859;BME280;45734;53.648;9.566;2022-07-29T06:21:15;101965.28;;;15.57;100.00
59859;BME280;45734;53.648;9.566;2022-07-29T06:26:16;101949.31;;;15.55;100.00
59859;BME280;45734;53.648;9.566;2022-07-29T06:31:17;101956.88;;;15.60;100.00
59859;BME280;45734;53.648;9.566;2022-07-29T06:36:17;101948.81;;;15.60;100.00
59859;BME280;45734;53.648;9.566;2022-07-29T06:41:17;101957.09;;;15.75;100.00
59859;BME280;45734;53.648;9.566;2022-07-29T06:46:19;101956.78;;;15.78;100.00
59859;BME280;45734;53.648;9.566;2022-07-29T06:51:20;101950.59;;;15.86;100.00
59859;BME280;45734;53.648;9.566;2022-07-29T06:56:21;101951.09;;;15.89;100.00
59859;BME280;45734;53.648;9.566;2022-07-29T07:01:21;101954.09;;;16.02;100.00
59859;BME280;45734;53.648;9.566;2022-07-29T07:06:21;101946.03;;;16.19;100.00
59859;BME280;45734;53.648;9.566;2022-07-29T07:11:22;101953.91;;;16.37;100.00
59859;BME280;45734;53.648;9.566;2022-07-29T07:16:22;101949.84;;;16.57;100.00
59859;BME280;45734;53.648;9.566;2022-07-29T07:21:22;101936.25;;;17.14;100.00
59859;BME280;45734;53.648;9.566;2022-07-29T07:26:22;101939.59;;;17.79;99.64
59859;BME280;45734;53.648;9.566;2022-07-29T07:31:23;101942.81;;;17.97;99.15
59859;BME280;45734;53.648;9.566;2022-07-29T07:36:23;101935.25;;;18.53;95.58
59859;BME280;45734;53.648;9.566;2022-07-29T07:41:23;101938.56;;;19.66;89.07
59859;BME280;45734;53.648;9.566;2022-07-29T07:46:24;101943.63;;;20.19;86.56
59859;BME280;45734;53.648;9.566;2022-07-29T07:51:24;101936.63;;;20.52;85.24
59859;BME280;45734;53.648;9.566;2022-07-29T07:56:24;101922.50;;;20.29;84.71
59859;BME280;45734;53.648;9.566;2022-07-29T08:01:25;101915.88;;;20.10;86.54
59859;BME280;45734;53.648;9.566;2022-07-29T08:06:25;101921.56;;;19.72;86.51
59859;BME280;45734;53.648;9.566;2022-07-29T08:11:25;101921.69;;;19.64;89.93
59859;BME280;45734;53.648;9.566;2022-07-29T08:16:26;101917.81;;;19.66;87.37
59859;BME280;45734;53.648;9.566;2022-07-29T08:21:26;101914.25;;;19.87;88.92
59859;BME280;45734;53.648;9.566;2022-07-29T08:26:26;101925.28;;;20.70;85.38
59859;BME280;45734;53.648;9.566;2022-07-29T08:31:27;101917.75;;;21.62;80.48
59859;BME280;45734;53.648;9.566;2022-07-29T08:36:27;101924.94;;;21.35;80.03
59859;BME280;45734;53.648;9.566;2022-07-29T08:41:27;101923.41;;;21.12;83.37
59859;BME280;45734;53.648;9.566;2022-07-29T08:46:28;101916.47;;;20.96;81.99
59859;BME280;45734;53.648;9.566;2022-07-29T08:51:30;101917.44;;;20.82;83.39
59859;BME280;45734;53.648;9.566;2022-07-29T08:56:30;101926.00;;;20.51;84.86
59859;BME280;45734;53.648;9.566;2022-07-29T09:01:33;101913.41;;;20.37;89.10
59859;BME280;45734;53.648;9.566;2022-07-29T09:06:37;101912.25;;;20.24;88.75
59859;BME280;45734;53.648;9.566;2022-07-29T09:11:40;101917.72;;;20.03;87.67
59859;BME280;45734;53.648;9.566;2022-07-29T09:16:51;101913.22;;;19.88;88.38
59859;BME280;45734;53.648;9.566;2022-07-29T09:21:53;101921.44;;;19.80;89.50
59859;BME280;45734;53.648;9.566;2022-07-29T09:26:59;101915.03;;;19.81;90.75
59859;BME280;45734;53.648;9.566;2022-07-29T09:32:00;101923.75;;;19.83;91.39
59859;BME280;45734;53.648;9.566;2022-07-29T09:37:00;101914.50;;;19.93;93.75
59859;BME280;45734;53.648;9.566;2022-07-29T09:42:03;101917.13;;;20.07;92.45
59859;BME280;45734;53.648;9.566;2022-07-29T09:47:04;101921.94;;;20.12;91.74
59859;BME280;45734;53.648;9.566;2022-07-29T09:52:09;101923.03;;;20.18;93.09
59859;BME280;45734;53.648;9.566;2022-07-29T09:57:28;101920.38;;;20.24;92.78
59859;BME280;45734;53.648;9.566;2022-07-29T10:02:30;101919.59;;;20.30;94.09
59859;BME280;45734;53.648;9.566;2022-07-29T10:13:04;101906.28;;;20.35;91.60
59859;BME280;45734;53.648;9.566;2022-07-29T10:18:06;101906.00;;;20.52;92.70
59859;BME280;45734;53.648;9.566;2022-07-29T10:23:08;101888.41;;;20.63;92.95
59859;BME280;45734;53.648;9.566;2022-07-29T10:28:09;101896.56;;;20.76;92.17
59859;BME280;45734;53.648;9.566;2022-07-29T10:43:48;101881.03;;;21.53;79.07
59859;BME280;45734;53.648;9.566;2022-07-29T10:49:13;101880.84;;;21.74;79.56
59859;BME280;45734;53.648;9.566;2022-07-29T10:54:14;101878.13;;;21.94;80.43
59859;BME280;45734;53.648;9.566;2022-07-29T11:15:16;101868.22;;;23.18;64.97
59859;BME280;45734;53.648;9.566;2022-07-29T11:20:46;101872.59;;;23.82;69.19
59859;BME280;45734;53.648;9.566;2022-07-29T11:26:20;101864.13;;;23.97;65.22
59859;BME280;45734;53.648;9.566;2022-07-29T11:31:39;101861.97;;;24.06;67.57
59859;BME280;45734;53.648;9.566;2022-07-29T11:47:21;101855.50;;;24.80;58.88
59859;BME280;45734;53.648;9.566;2022-07-29T11:52:22;101840.00;;;25.11;56.27
59859;BME280;45734;53.648;9.566;2022-07-29T11:57:22;101846.91;;;25.14;57.12
59859;BME280;45734;53.648;9.566;2022-07-29T12:02:24;101842.75;;;24.93;56.00
59859;BME280;45734;53.648;9.566;2022-07-29T12:07:30;101833.56;;;24.57;56.35
59859;BME280;45734;53.648;9.566;2022-07-29T12:12:32;101838.50;;;24.05;56.28
59859;BME280;45734;53.648;9.566;2022-07-29T12:17:33;101829.69;;;23.84;58.75
59859;BME280;45734;53.648;9.566;2022-07-29T12:22:37;101829.81;;;23.96;62.66
59859;BME280;45734;53.648;9.566;2022-07-29T12:27:39;101826.84;;;24.41;61.18
59859;BME280;45734;53.648;9.566;2022-07-29T12:32:42;101822.94;;;24.85;56.23
59859;BME280;45734;53.648;9.566;2022-07-29T12:37:44;101830.72;;;25.30;55.11
59859;BME280;45734;53.648;9.566;2022-07-29T12:43:07;101822.81;;;25.41;54.62
59859;BME280;45734;53.648;9.566;2022-07-29T12:48:09;101812.03;;;25.58;56.86
59859;BME280;45734;53.648;9.566;2022-07-29T12:53:13;101820.38;;;25.74;50.33
59859;BME280;45734;53.648;9.566;2022-07-29T12:58:13;101814.06;;;25.74;50.50
59859;BME280;45734;53.648;9.566;2022-07-29T13:03:14;101810.78;;;25.84;47.37
59859;BME280;45734;53.648;9.566;2022-07-29T13:08:16;101807.19;;;25.71;47.02
59859;BME280;45734;53.648;9.566;2022-07-29T13:13:18;101807.91;;;25.79;46.42
59859;BME280;45734;53.648;9.566;2022-07-29T13:18:33;101798.53;;;25.63;46.80
59859;BME280;45734;53.648;9.566;2022-07-29T13:23:34;101790.56;;;25.61;47.53
59859;BME280;45734;53.648;9.566;2022-07-29T13:28:35;101781.56;;;25.49;47.79
59859;BME280;45734;53.648;9.566;2022-07-29T13:33:35;101778.78;;;25.25;50.96
59859;BME280;45734;53.648;9.566;2022-07-29T13:38:35;101789.72;;;25.07;52.83
59859;BME280;45734;53.648;9.566;2022-07-29T13:43:36;101774.03;;;24.91;51.82
59859;BME280;45734;53.648;9.566;2022-07-29T13:48:36;101776.16;;;24.89;53.67
59859;BME280;45734;53.648;9.566;2022-07-29T13:53:36;101772.25;;;24.84;58.61
59859;BME280;45734;53.648;9.566;2022-07-29T13:58:37;101764.72;;;24.68;53.60
59859;BME280;45734;53.648;9.566;2022-07-29T14:03:38;101769.84;;;24.76;57.59
59859;BME280;45734;53.648;9.566;2022-07-29T14:08:41;101774.75;;;24.98;56.96
59859;BME280;45734;53.648;9.566;2022-07-29T14:13:41;101769.69;;;25.13;56.42
59859;BME280;45734;53.648;9.566;2022-07-29T14:18:41;101762.78;;;25.17;54.64
59859;BME280;45734;53.648;9.566;2022-07-29T14:23:42;101761.03;;;25.35;56.28
59859;BME280;45734;53.648;9.566;2022-07-29T14:28:42;101753.94;;;25.57;56.57
59859;BME280;45734;53.648;9.566;2022-07-29T14:33:43;101747.16;;;25.60;55.54
59859;BME280;45734;53.648;9.566;2022-07-29T14:38:44;101751.06;;;25.40;56.20
59859;BME280;45734;53.648;9.566;2022-07-29T14:43:44;101757.34;;;25.41;56.06
59859;BME280;45734;53.648;9.566;2022-07-29T14:48:44;101748.81;;;25.25;57.84
59859;BME280;45734;53.648;9.566;2022-07-29T14:53:45;101751.38;;;24.78;59.38
59859;BME280;45734;53.648;9.566;2022-07-29T14:58:45;101745.75;;;24.43;59.87
59859;BME280;45734;53.648;9.566;2022-07-29T15:03:45;101742.50;;;23.98;61.42
59859;BME280;45734;53.648;9.566;2022-07-29T15:08:46;101748.88;;;23.66;64.01
59859;BME280;45734;53.648;9.566;2022-07-29T15:13:46;101748.41;;;23.44;63.38
59859;BME280;45734;53.648;9.566;2022-07-29T15:18:46;101753.53;;;23.34;64.48
59859;BME280;45734;53.648;9.566;2022-07-29T15:23:47;101749.81;;;23.28;64.18
59859;BME280;45734;53.648;9.566;2022-07-29T15:28:47;101754.75;;;23.38;65.62
59859;BME280;45734;53.648;9.566;2022-07-29T15:33:47;101754.09;;;23.68;64.73
59859;BME280;45734;53.648;9.566;2022-07-29T15:38:48;101738.88;;;24.22;64.42
59859;BME280;45734;53.648;9.566;2022-07-29T15:43:53;101737.66;;;24.36;63.42
59859;BME280;45734;53.648;9.566;2022-07-29T15:48:53;101736.63;;;24.01;61.83
59859;BME280;45734;53.648;9.566;2022-07-29T15:53:53;101735.88;;;23.68;62.85
59859;BME280;45734;53.648;9.566;2022-07-29T15:58:54;101735.84;;;23.25;62.98
59859;BME280;45734;53.648;9.566;2022-07-29T16:03:54;101726.63;;;22.94;66.83
59859;BME280;45734;53.648;9.566;2022-07-29T16:08:55;101722.94;;;22.82;65.15
59859;BME280;45734;53.648;9.566;2022-07-29T16:13:55;101723.44;;;22.66;64.80
59859;BME280;45734;53.648;9.566;2022-07-29T16:18:55;101723.16;;;22.49;68.11
59859;BME280;45734;53.648;9.566;2022-07-29T16:23:57;101719.84;;;22.40;71.02
59859;BME280;45734;53.648;9.566;2022-07-29T16:28:57;101724.47;;;22.33;71.95
59859;BME280;45734;53.648;9.566;2022-07-29T16:33:59;101705.69;;;22.25;73.26
59859;BME280;45734;53.648;9.566;2022-07-29T16:38:59;101708.84;;;22.22;75.37
59859;BME280;45734;53.648;9.566;2022-07-29T16:44:00;101710.53;;;22.23;73.52
59859;BME280;45734;53.648;9.566;2022-07-29T16:49:00;101697.59;;;22.18;72.02
59859;BME280;45734;53.648;9.566;2022-07-29T16:54:00;101698.19;;;22.13;72.83
59859;BME280;45734;53.648;9.566;2022-07-29T16:59:00;101685.28;;;22.09;73.37
59859;BME280;45734;53.648;9.566;2022-07-29T17:04:01;101698.22;;;22.07;72.54
59859;BME280;45734;53.648;9.566;2022-07-29T17:09:09;101696.56;;;22.06;74.34
59859;BME280;45734;53.648;9.566;2022-07-29T17:14:10;101691.16;;;22.06;74.57
59859;BME280;45734;53.648;9.566;2022-07-29T17:19:10;101685.75;;;21.99;72.73
59859;BME280;45734;53.648;9.566;2022-07-29T17:24:11;101691.41;;;21.91;75.59
59859;BME280;45734;53.648;9.566;2022-07-29T17:29:11;101694.34;;;21.83;74.85
59859;BME280;45734;53.648;9.566;2022-07-29T17:34:13;101697.72;;;21.72;75.22
59859;BME280;45734;53.648;9.566;2022-07-29T17:39:14;101701.88;;;21.61;75.09
59859;BME280;45734;53.648;9.566;2022-07-29T17:44:14;101694.63;;;21.48;75.76
59859;BME280;45734;53.648;9.566;2022-07-29T17:49:14;101700.00;;;21.35;75.36
59859;BME280;45734;53.648;9.566;2022-07-29T17:54:15;101697.53;;;21.27;78.72
59859;BME280;45734;53.648;9.566;2022-07-29T17:59:15;101698.78;;;21.11;79.71
59859;BME280;45734;53.648;9.566;2022-07-29T18:04:15;101691.06;;;20.94;80.83
59859;BME280;45734;53.648;9.566;2022-07-29T18:09:19;101696.22;;;20.83;81.70
59859;BME280;45734;53.648;9.566;2022-07-29T18:14:20;101693.75;;;20.74;81.34
59859;BME280;45734;53.648;9.566;2022-07-29T18:19:20;101697.47;;;20.67;81.47
59859;BME280;45734;53.648;9.566;2022-07-29T18:24:24;101694.31;;;20.56;82.73
59859;BME280;45734;53.648;9.566;2022-07-29T18:29:26;101691.31;;;20.45;82.98
59859;BME280;45734;53.648;9.566;2022-07-29T18:34:28;101695.66;;;20.32;85.41
59859;BME280;45734;53.648;9.566;2022-07-29T18:39:28;101682.28;;;20.18;86.92
59859;BME280;45734;53.648;9.566;2022-07-29T18:44:28;101687.00;;;20.02;88.58
59859;BME280;45734;53.648;9.566;2022-07-29T18:49:28;101685.25;;;19.81;90.50
59859;BME280;45734;53.648;9.566;2022-07-29T18:54:29;101685.72;;;19.63;91.45
59859;BME280;45734;53.648;9.566;2022-07-29T18:59:30;101693.31;;;19.47;92.43
59859;BME280;45734;53.648;9.566;2022-07-29T19:04:32;101689.84;;;19.31;94.50
59859;BME280;45734;53.648;9.566;2022-07-29T19:09:33;101712.84;;;19.20;94.86
59859;BME280;45734;53.648;9.566;2022-07-29T19:14:33;101712.53;;;19.09;96.50
59859;BME280;45734;53.648;9.566;2022-07-29T19:19:34;101717.84;;;19.02;96.46
59859;BME280;45734;53.648;9.566;2022-07-29T19:24:34;101714.75;;;19.05;95.74
59859;BME280;45734;53.648;9.566;2022-07-29T19:29:34;101728.47;;;19.04;96.46
59859;BME280;45734;53.648;9.566;2022-07-29T19:34:35;101723.19;;;18.95;96.46
59859;BME280;45734;53.648;9.566;2022-07-29T19:39:35;101736.41;;;18.90;96.84
59859;BME280;45734;53.648;9.566;2022-07-29T19:44:35;101738.63;;;18.80;98.18
59859;BME280;45734;53.648;9.566;2022-07-29T19:49:36;101735.16;;;18.71;99.22
59859;BME280;45734;53.648;9.566;2022-07-29T19:54:38;101735.47;;;18.62;100.00
59859;BME280;45734;53.648;9.566;2022-07-29T19:59:38;101728.50;;;18.52;100.00
59859;BME280;45734;53.648;9.566;2022-07-29T20:04:39;101730.03;;;18.40;100.00
59859;BME280;45734;53.648;9.566;2022-07-29T20:09:39;101720.81;;;18.35;100.00
59859;BME280;45734;53.648;9.566;2022-07-29T20:14:40;101715.16;;;18.29;100.00
59859;BME280;45734;53.648;9.566;2022-07-29T20:19:40;101719.91;;;18.27;100.00
59859;BME280;45734;53.648;9.566;2022-07-29T20:24:41;101732.56;;;18.27;100.00
59859;BME280;45734;53.648;9.566;2022-07-29T20:29:42;101732.75;;;18.25;100.00
59859;BME280;45734;53.648;9.566;2022-07-29T20:34:42;101737.97;;;18.27;100.00
59859;BME280;45734;53.648;9.566;2022-07-29T20:39:42;101728.00;;;18.27;100.00
59859;BME280;45734;53.648;9.566;2022-07-29T20:44:43;101733.03;;;18.30;100.00
59859;BME280;45734;53.648;9.566;2022-07-29T20:49:43;101733.31;;;18.36;100.00
59859;BME280;45734;53.648;9.566;2022-07-29T20:54:44;101733.09;;;18.37;100.00
59859;BME280;45734;53.648;9.566;2022-07-29T20:59:45;101737.66;;;18.37;100.00
59859;BME280;45734;53.648;9.566;2022-07-29T21:04:45;101735.13;;;18.35;100.00
59859;BME280;45734;53.648;9.566;2022-07-29T21:09:45;101743.22;;;18.35;100.00
59859;BME280;45734;53.648;9.566;2022-07-29T21:14:46;101740.91;;;18.32;100.00
59859;BME280;45734;53.648;9.566;2022-07-29T21:19:47;101743.97;;;18.29;100.00
59859;BME280;45734;53.648;9.566;2022-07-29T21:24:47;101754.97;;;18.27;100.00
59859;BME280;45734;53.648;9.566;2022-07-29T21:29:48;101755.34;;;18.24;100.00
59859;BME280;45734;53.648;9.566;2022-07-29T21:34:48;101749.97;;;18.24;100.00
59859;BME280;45734;53.648;9.566;2022-07-29T21:39:49;101756.72;;;18.20;100.00
59859;BME280;45734;53.648;9.566;2022-07-29T21:44:49;101752.09;;;18.14;100.00
59859;BME280;45734;53.648;9.566;2022-07-29T21:49:49;101761.13;;;18.06;100.00
59859;BME280;45734;53.648;9.566;2022-07-29T21:54:51;101753.75;;;18.00;100.00
59859;BME280;45734;53.648;9.566;2022-07-29T21:59:52;101750.31;;;17.92;100.00
59859;BME280;45734;53.648;9.566;2022-07-29T22:04:52;101746.53;;;17.86;100.00
59859;BME280;45734;53.648;9.566;2022-07-29T22:09:52;101750.78;;;17.80;100.00
59859;BME280;45734;53.648;9.566;2022-07-29T22:14:53;101744.41;;;17.73;100.00
59859;BME280;45734;53.648;9.566;2022-07-29T22:19:53;101749.16;;;17.71;100.00
59859;BME280;45734;53.648;9.566;2022-07-29T22:24:53;101749.72;;;17.67;100.00
59859;BME280;45734;53.648;9.566;2022-07-29T22:29:54;101748.75;;;17.59;100.00
59859;BME280;45734;53.648;9.566;2022-07-29T22:34:55;101749.50;;;17.53;100.00
59859;BME280;45734;53.648;9.566;2022-07-29T22:39:55;101744.84;;;17.47;100.00
59859;BME280;45734;53.648;9.566;2022-07-29T22:44:55;101741.00;;;17.41;100.00
59859;BME280;45734;53.648;9.566;2022-07-29T22:49:55;101743.25;;;17.38;100.00
59859;BME280;45734;53.648;9.566;2022-07-29T22:54:56;101740.06;;;17.34;100.00
59859;BME280;45734;53.648;9.566;2022-07-29T22:59:56;101754.75;;;17.32;100.00
59859;BME280;45734;53.648;9.566;2022-07-29T23:04:57;101749.88;;;17.27;100.00
59859;BME280;45734;53.648;9.566;2022-07-29T23:09:57;101752.09;;;17.24;100.00
59859;BME280;45734;53.648;9.566;2022-07-29T23:14:58;101741.03;;;17.18;100.00
59859;BME280;45734;53.648;9.566;2022-07-29T23:19:58;101742.06;;;17.17;100.00
59859;BME280;45734;53.648;9.566;2022-07-29T23:24:58;101732.84;;;17.12;100.00
59859;BME280;45734;53.648;9.566;2022-07-29T23:29:58;101730.69;;;17.07;100.00
59859;BME280;45734;53.648;9.566;2022-07-29T23:34:59;101729.38;;;17.03;100.00
59859;BME280;45734;53.648;9.566;2022-07-29T23:39:59;101729.06;;;16.98;100.00
59859;BME280;45734;53.648;9.566;2022-07-29T23:44:59;101727.78;;;16.94;100.00
59859;BME280;45734;53.648;9.566;2022-07-29T23:50:00;101730.16;;;16.89;100.00
59859;BME280;45734;53.648;9.566;2022-07-29T23:55:00;101743.97;;;16.86;100.00
